Latest Weather Observations for Nerriga

IDN60801

Issued at 4:03 pm EST Sunday 2 August 2015 (issued every 30 minutes, with the page automatically refreshed every 10 minutes)

About weather observations | Map of weather stations | Latest weather observations for NSW | Other Formats
Station Details ID: 069128 Name: NERRIGA AWS Lat: -35.11 Lon: 150.08 Height: 622.0 m
Data from the previous 72 hours. | See also: Recent months at Nerriga
Date/Time
EST
Temp
°C
App
Temp
°C
Dew
Point
Rel
Hum
%
Delta-T
°C
Wind Press
QNH
hPa
Press
MSL
hPa
Rain
since 9 am
mm
Dir
 
Spd
km/h
Gust
km/h
Spd
kts
Gust
kts
02/04:00pm 11.4 5.9 7.7 78 1.9 WNW 26 39 14 21 1012.0 1012.6 1.6
02/03:30pm 12.4 6.0 6.9 69 2.7 NW 30 48 16 26 1010.9 1011.5 1.6
02/03:25pm 13.0 6.7 7.2 68 2.9 WNW 30 50 16 27 1010.8 1011.4 1.6
02/03:00pm 13.3 8.0 6.6 64 3.3 WNW 24 37 13 20 1010.4 1011.0 1.6
02/02:34pm 13.4 6.9 6.7 64 3.3 NW 30 48 16 26 1011.0 1011.6 1.6
02/02:30pm 13.5 6.7 6.8 64 3.3 NW 32 48 17 26 1010.7 1011.3 1.6
02/02:00pm 14.1 6.9 6.0 58 4.0 NW 33 46 18 25 1009.6 1010.2 1.6
02/01:32pm 15.1 7.6 6.4 56 4.4 NW 35 54 19 29 1009.7 1010.4 1.6
02/01:30pm 15.3 7.4 6.3 55 4.5 NW 37 54 20 29 1009.6 1010.2 1.6
02/01:20pm 15.4 7.4 5.9 53 4.7 NW 37 59 20 32 1009.7 1010.4 1.6
02/01:00pm 15.4 8.6 7.7 60 4.0 NW 33 50 18 27 1010.2 1010.8 1.6
02/12:30pm 14.8 7.6 7.8 63 3.6 NNW 35 57 19 31 1010.7 1011.3 1.6
02/12:24pm 14.8 8.4 8.7 67 3.2 NW 32 54 17 29 1010.9 1011.5 1.6
02/12:00pm 13.8 9.5 9.5 75 2.3 NNW 22 44 12 24 1011.2 1011.9 1.6
02/11:30am 11.5 8.2 9.4 87 1.1 N 17 24 9 13 1012.2 1012.8 1.6
02/11:00am 9.9 6.8 8.7 92 0.6 N 15 22 8 12 1013.0 1013.7 1.6
02/10:30am 9.8 6.5 8.2 90 0.8 N 15 22 8 12 1013.1 1013.8 1.2
02/10:00am 10.4 6.2 7.6 83 1.4 NNW 19 32 10 17 1013.7 1014.3 1.2
02/09:30am 9.7 6.7 7.8 88 0.9 NW 13 19 7 10 1014.7 1015.4 0.8
02/09:00am 8.8 6.3 8.0 95 0.4 NNW 11 15 6 8 1015.6 1016.3 7.8
02/08:30am 8.5 6.7 7.9 96 0.3 NNW 7 11 4 6 1014.8 1015.5 7.8
02/08:00am 7.9 6.1 7.8 99 0.0 NNW 7 9 4 5 1014.9 1015.6 7.8
02/07:30am 7.3 5.5 7.2 99 0.0 NW 6 11 3 6 1015.3 1016.0 7.8
02/07:00am 7.4 5.4 7.1 98 0.1 WNW 7 11 4 6 1015.5 1016.2 7.6
02/06:30am 7.5 5.7 7.2 98 0.1 WNW 6 9 3 5 1016.1 1016.8 7.4
02/06:00am 7.3 5.5 7.2 99 0.0 NNE 6 9 3 5 1016.2 1016.9 6.8
02/05:30am 7.4 5.4 7.1 98 0.1 NNE 7 9 4 5 1015.4 1016.1 6.8
02/05:00am 7.5 4.8 7.4 99 0.0 WNW 11 15 6 8 1015.5 1016.2 6.4
02/04:30am 7.5 4.8 7.2 98 0.1 W 11 13 6 7 1016.0 1016.7 6.2
02/04:00am 7.6 5.8 7.0 96 0.3 W 6 7 3 4 1015.4 1016.1 6.2
02/03:30am 7.8 5.1 7.4 97 0.2 WSW 11 15 6 8 1016.3 1017.0 5.8
02/03:00am 7.8 6.4 7.2 96 0.3 SW 4 6 2 3 1015.6 1016.3 5.8
02/02:30am 8.1 5.8 7.3 95 0.4 SW 9 15 5 8 1016.3 1017.0 5.4
02/02:00am 8.3 6.0 7.4 94 0.4 W 9 13 5 7 1016.4 1017.1 4.6
02/01:30am 8.6 6.3 7.4 92 0.6 W 9 17 5 9 1017.1 1017.8 3.4
02/01:00am 8.8 5.8 7.7 93 0.5 W 13 22 7 12 1016.8 1017.6 2.6
02/12:30am 9.0 6.0 7.9 93 0.5 W 13 20 7 11 1017.4 1018.1 2.0
02/12:00am 9.1 4.4 7.9 92 0.6 W 22 32 12 17 1017.6 1018.3 1.4
 
Date/Time
EST
Temp
°C
App
Temp
°C
Dew
Point
Rel
Hum
%
Delta-T
°C
Wind Press
QNH
hPa
Press
MSL
hPa
Rain
since 9 am
mm
Dir
 
Spd
km/h
Gust
km/h
Spd
kts
Gust
kts
01/11:30pm 8.8 5.2 6.9 88 0.9 NW 15 28 8 15 1017.4 1018.1 0.4
01/11:00pm 9.0 6.3 5.4 78 1.7 W 9 11 5 6 1017.1 1017.8 0.0
01/10:30pm 8.4 6.1 4.8 78 1.7 W 6 7 3 4 1017.0 1017.7 0.0
01/10:00pm 8.2 6.6 4.4 77 1.7 W 2 4 1 2 1017.4 1018.1 0.0
01/09:30pm 9.5 6.6 4.5 71 2.3 W 9 11 5 6 1017.5 1018.2 0.0
01/09:00pm 9.5 6.2 4.5 71 2.3 W 11 17 6 9 1017.1 1017.8 0.0
01/08:30pm 10.1 6.9 4.9 70 2.4 W 11 17 6 9 1017.3 1018.0 0.0
01/08:00pm 10.7 6.6 4.6 66 2.8 W 15 24 8 13 1017.1 1017.8 0.0
01/07:30pm 11.1 6.3 4.8 65 3.0 WNW 19 30 10 16 1017.1 1017.8 0.0
01/07:00pm 11.3 6.3 4.7 64 3.1 NW 20 30 11 16 1016.1 1016.8 0.0
01/06:30pm 11.4 6.4 4.8 64 3.1 WNW 20 28 11 15 1016.2 1016.9 0.0
01/06:00pm 11.6 5.8 4.3 61 3.4 WNW 24 33 13 18 1015.7 1016.4 0.0
01/05:30pm 12.0 5.8 4.5 60 3.5 WNW 26 39 14 21 1014.9 1015.6 0.0
01/05:00pm 12.7 6.6 4.9 59 3.7 WNW 26 43 14 23 1014.5 1015.2 0.0
01/04:30pm 13.0 6.5 4.9 58 3.9 WNW 28 39 15 21 1013.6 1014.2 0.0
01/04:00pm 13.1 5.8 4.3 55 4.2 WNW 32 44 17 24 1013.6 1014.2 0.0
01/03:30pm 14.3 6.2 3.2 47 5.2 WNW 35 50 19 27 1013.3 1014.0 0.0
01/03:00pm 14.2 6.3 2.5 45 5.4 WNW 33 48 18 26 1013.3 1014.0 0.0
01/02:41pm 14.9 7.1 2.8 44 5.6 WNW 33 61 18 33 1013.4 1014.1 0.0
01/02:30pm 14.9 7.4 3.4 46 5.4 WNW 32 43 17 23 1013.4 1014.1 0.0
01/02:00pm 14.7 5.5 3.5 47 5.3 WNW 41 63 22 34 1012.8 1013.5 0.0
01/01:38pm 14.4 5.2 3.5 48 5.1 NW 41 61 22 33 1012.8 1013.5 0.0
01/01:30pm 14.6 5.4 3.7 48 5.1 NW 41 56 22 30 1012.9 1013.6 0.0
01/01:00pm 13.8 5.2 2.7 47 5.1 NW 37 54 20 29 1013.2 1013.9 0.0
01/12:30pm 14.0 6.3 2.3 45 5.3 NW 32 52 17 28 1013.3 1014.0 0.0
01/12:08pm 13.9 7.2 3.4 49 4.9 NW 28 46 15 25 1014.0 1014.7 0.0
01/12:00pm 13.6 6.2 3.9 52 4.6 NW 32 43 17 23 1014.1 1014.8 0.0
01/11:33am 13.0 5.5 3.4 52 4.4 NW 32 52 17 28 1014.5 1015.2 0.0
01/11:30am 12.9 5.8 3.3 52 4.4 NW 30 43 16 23 1014.6 1015.3 0.0
01/11:08am 12.6 5.8 3.3 53 4.3 NW 28 48 15 26 1014.8 1015.5 0.0
01/11:00am 12.7 7.2 3.9 55 4.1 NW 22 30 12 16 1015.1 1015.9 0.0
01/10:46am 12.0 5.2 3.3 55 4.0 NW 28 39 15 21 1015.3 1016.0 0.0
01/10:30am 11.0 7.3 4.2 63 3.2 NNW 13 20 7 11 1015.7 1016.4 0.0
01/10:00am 10.6 6.1 4.1 64 3.0 NNW 17 20 9 11 1015.6 1016.3 0.0
01/09:30am 10.4 5.3 3.9 64 3.0 NNW 20 26 11 14 1015.8 1016.8 0.0
01/09:00am 10.6 5.5 4.3 65 2.9 NNW 20 26 11 14 1015.9 1016.9 0.0
01/08:30am 9.6 4.4 3.6 66 2.7 NNW 20 30 11 16 1016.3 1017.4 0.0
01/08:00am 8.6 2.9 2.8 67 2.6 NNW 22 30 12 16 1016.0 1017.0 0.0
01/07:30am 7.7 2.4 3.0 72 2.1 NW 20 28 11 15 1016.2 1017.3 0.0
01/07:00am 7.2 2.1 2.9 74 1.9 NNW 19 26 10 14 1016.0 1017.0 0.0
01/06:30am 7.7 0.9 3.0 72 2.1 NW 28 35 15 19 1015.5 1016.5 0.0
01/06:00am 7.7 0.2 3.4 74 1.9 NW 32 41 17 22 1015.3 1016.3 0.0
01/05:30am 7.8 0.2 3.7 75 1.8 WNW 33 41 18 22 1015.5 1016.5 0.0
01/05:00am 7.4 0.4 4.0 79 1.5 WNW 30 35 16 19 1015.6 1016.6 0.0
01/04:30am 7.0 0.7 3.8 80 1.4 NW 26 33 14 18 1015.8 1016.8 0.0
01/04:00am 7.3 1.1 4.3 81 1.4 NW 26 35 14 19 1016.1 1017.2 0.0
01/03:30am 6.5 1.4 4.3 86 1.0 NW 20 30 11 16 1017.0 1018.0 0.0
01/03:00am 5.0 1.5 3.5 90 0.6 NNW 11 17 6 9 1017.5 1018.6 0.0
01/02:30am 4.8 0.5 3.5 91 0.6 NNW 15 22 8 12 1017.7 1018.8 0.0
01/02:00am 4.4 1.6 2.9 90 0.6 NW 7 13 4 7 1018.1 1019.2 0.0
01/01:30am 4.8 1.6 3.3 90 0.6 NW 9 11 5 6 1018.5 1019.6 0.0
01/01:00am 3.5 0.2 2.3 92 0.5 NW 9 11 5 6 1018.8 1019.9 0.0
01/12:30am 3.6 0.6 2.3 91 0.5 NW 7 11 4 6 1018.8 1019.9 0.0
01/12:00am 3.8 0.5 2.5 91 0.5 NW 9 13 5 7 1019.3 1020.4 0.0
 
Date/Time
EST
Temp
°C
App
Temp
°C
Dew
Point
Rel
Hum
%
Delta-T
°C
Wind Press
QNH
hPa
Press
MSL
hPa
Rain
since 9 am
mm
Dir
 
Spd
km/h
Gust
km/h
Spd
kts
Gust
kts
31/11:30pm 4.6 1.6 2.3 85 1.0 NW 7 11 4 6 1019.9 1021.0 0.0
31/11:00pm 5.3 2.4 2.8 84 1.1 NW 7 9 4 5 1020.4 1021.5 0.0
31/10:30pm 5.1 2.4 2.6 84 1.1 NW 6 9 3 5 1020.6 1021.7 0.0
31/10:00pm 6.2 3.4 3.0 80 1.4 NW 7 9 4 5 1020.9 1022.0 0.0
31/09:30pm 6.9 4.3 3.3 78 1.6 NW 6 7 3 4 1020.8 1021.9 0.0
31/09:00pm 6.8 4.2 3.2 78 1.6 NW 6 7 3 4 1020.7 1021.8 0.0
31/08:30pm 6.0 3.7 3.0 81 1.3 NW 4 6 2 3 1020.5 1021.6 0.0
31/08:00pm 5.8 4.1 2.1 77 1.6 CALM 0 2 0 1 1020.4 1021.5 0.0
31/07:30pm 6.0 3.3 2.6 79 1.5 NW 6 9 3 5 1020.0 1021.1 0.0
31/07:00pm 6.2 4.1 1.9 74 1.8 NW 2 6 1 3 1020.0 1021.1 0.0
31/06:30pm 9.0 6.1 2.6 64 2.8 NW 7 9 4 5 1020.1 1021.3 0.0
31/06:00pm 9.2 5.9 2.5 63 2.9 NW 9 11 5 6 1019.9 1021.0 0.0
31/05:30pm 9.4 5.7 2.3 61 3.1 NW 11 17 6 9 1019.7 1020.8 0.0
31/05:00pm 11.1 6.6 2.2 54 3.9 NW 15 20 8 11 1019.6 1020.7 0.0
31/04:30pm 12.6 7.8 2.7 51 4.5 NW 17 20 9 11 1019.2 1020.3 0.0
31/04:00pm 13.3 8.4 2.2 47 5.0 WNW 17 24 9 13 1019.0 1020.1 0.0
31/03:30pm 13.7 8.3 2.3 46 5.2 NW 20 28 11 15 1019.1 1020.2 0.0
31/03:00pm 13.5 8.7 2.7 48 4.9 WNW 17 28 9 15 1019.2 1020.3 0.0
31/02:30pm 13.8 8.8 1.5 43 5.5 WNW 17 24 9 13 1018.9 1020.0 0.0
31/02:00pm 13.0 7.5 1.7 46 5.0 W 20 30 11 16 1018.9 1020.0 0.0
31/01:30pm 14.0 7.8 2.3 45 5.3 WNW 24 32 13 17 1019.2 1020.3 0.0
31/01:00pm 14.4 9.1 2.9 46 5.3 WNW 20 32 11 17 1019.4 1020.5 0.0
31/12:30pm 12.7 8.1 3.6 54 4.2 NW 17 24 9 13 1019.7 1020.8 0.0
31/12:00pm 11.9 8.6 4.4 60 3.5 WNW 11 22 6 12 1020.4 1021.5 0.0
31/11:30am 12.0 9.1 4.5 60 3.5 WNW 9 15 5 8 1020.8 1021.9 0.0
31/11:00am 11.1 8.6 3.6 60 3.4 WNW 6 11 3 6 1021.1 1022.2 0.0
31/10:30am 10.4 7.8 4.3 66 2.8 WNW 7 9 4 5 1021.2 1022.3 0.0
31/10:00am 9.3 7.2 3.7 68 2.5 WNW 4 7 2 4 1021.1 1022.2 0.0
31/09:30am 8.6 6.1 4.0 73 2.1 WNW 6 9 3 5 1021.0 1022.1 0.0
31/09:00am 7.0 4.8 3.3 77 1.6 WNW 4 6 2 3 1020.7 1021.8 0.0
31/08:30am 5.5 2.5 2.3 80 1.4 WNW 7 9 4 5 1020.5 1021.6 0.0
31/08:00am 4.8 2.5 3.0 88 0.8 WNW 4 6 2 3 1020.4 1021.5 0.0
31/07:30am 2.3 0.1 0.8 90 0.6 WNW 2 4 1 2 1020.0 1021.1 0.0
31/07:00am 2.7 -0.1 2.0 95 0.3 WNW 6 7 3 4 1019.6 1020.7 0.0
31/06:30am 3.6 0.8 2.0 89 0.7 WNW 6 6 3 3 1019.2 1020.3 0.0
31/06:00am 3.1 0.5 1.2 87 0.8 WNW 4 6 2 3 1018.8 1019.9 0.0
31/05:30am 4.0 1.0 1.0 81 1.2 WNW 6 7 3 4 1018.0 1019.1 0.0
31/05:00am 5.6 2.5 1.5 75 1.7 WNW 7 15 4 8 1018.0 1019.1 0.0
31/04:30am 6.4 1.5 1.9 73 1.9 WNW 17 28 9 15 1017.7 1018.8 0.0
31/04:00am 6.2 2.1 2.3 76 1.7 WNW 13 22 7 12 1017.5 1018.6 0.0
31/03:30am 5.2 1.0 1.9 79 1.4 WNW 13 19 7 10 1017.4 1018.4 0.0
31/03:00am 5.2 0.7 2.0 80 1.3 NW 15 22 8 12 1017.4 1018.4 0.0
31/02:30am 5.8 0.9 2.3 78 1.5 NW 17 26 9 14 1017.6 1018.7 0.0
31/02:00am 6.1 -0.5 2.2 76 1.6 NW 26 39 14 21 1017.8 1018.9 0.0
31/01:30am 6.4 -1.3 2.3 75 1.7 NW 32 41 17 22 1017.9 1019.0 0.0
31/01:00am 6.4 -2.3 2.3 75 1.7 NW 37 50 20 27 1017.6 1018.7 0.0
31/12:30am 6.4 -1.9 2.1 74 1.8 NW 35 46 19 25 1017.7 1018.8 0.0
31/12:00am 6.5 -1.8 2.0 73 1.9 NW 35 46 19 25 1017.8 1018.9 0.0
 
Date/Time
EST
Temp
°C
App
Temp
°C
Dew
Point
Rel
Hum
%
Delta-T
°C
Wind Press
QNH
hPa
Press
MSL
hPa
Rain
since 9 am
mm
Dir
 
Spd
km/h
Gust
km/h
Spd
kts
Gust
kts
30/11:30pm 6.8 -1.9 1.9 71 2.1 NW 37 46 20 25 1018.1 1019.2 0.0
30/11:00pm 6.8 -0.2 2.1 72 2.0 WNW 28 41 15 22 1018.5 1019.6 0.0
30/10:30pm 6.8 -0.9 2.1 72 2.0 NW 32 43 17 23 1018.7 1019.7 0.0
30/10:00pm 6.6 0.0 2.1 73 1.9 NW 26 33 14 18 1018.5 1019.6 0.0
30/09:30pm 7.0 0.4 2.3 72 2.0 NW 26 35 14 19 1018.8 1019.9 0.0
30/09:00pm 7.5 0.2 2.6 71 2.1 WNW 30 43 16 23 1019.0 1020.1 0.0
30/08:30pm 7.6 0.7 2.5 70 2.2 WNW 28 41 15 22 1019.2 1020.3 0.0
30/08:00pm 8.0 0.1 2.5 68 2.4 WNW 33 44 18 24 1018.2 1019.3 0.0
30/07:30pm 8.0 0.3 2.5 68 2.4 WNW 32 50 17 27 1019.2 1020.3 0.0
30/07:00pm 8.1 1.9 1.9 65 2.7 WNW 24 37 13 20 1019.3 1020.4 0.0
30/06:30pm 8.2 1.1 1.4 62 2.9 WNW 28 39 15 21 1019.3 1020.4 0.0
30/06:00pm 8.5 3.4 0.7 58 3.3 WNW 17 28 9 15 1019.5 1020.6 0.0
30/05:30pm 8.6 3.4 0.3 56 3.4 WNW 17 30 9 16 1019.4 1020.5 0.0
30/05:00pm 9.2 4.0 -0.1 52 3.8 NW 17 28 9 15 1019.0 1020.1 0.0
30/04:30pm 9.6 2.6 -0.6 49 4.2 NW 26 35 14 19 1018.7 1019.7 0.0

Other Formats:

Comma delimited format used in spreadsheet applications
http://www.bom.gov.au/fwo/IDN60801/IDN60801.94943.axf

JavaScript Object Notation format (JSON) in row-major order
http://www.bom.gov.au/fwo/IDN60801/IDN60801.94943.json